Terminal Aerodrome Forecast
Issued by NWS Memphis, TN

Home | Current Version | Previous Version | Text Only | Print | Product List | Glossary On
Versions: 1 2 3 4 5 6 7 8 9 10 11 12 13 14 15
750
FTUS44 KMEG 230531
TAFMKL
TAF
KMKL 230531Z 2306/2406 VRB03KT P6SM BKN120 BKN250
     FM230800 00000KT P6SM BKN100 BKN250
      TEMPO 2308/2312 6SM BR
     FM231700 27007KT P6SM BKN070 BKN250
     FM232200 28005KT P6SM VCTS BKN050CB BKN250=

USA.gov is the U.S. government's official web portal to all federal, state and local government web resources and services.